sensor_id;sensor_type;location;lat;lon;timestamp;pressure;altitude;pressure_sealevel;temperature;humidity
49178;BME280;35016;55.674;37.468;2023-01-24T00:03:24;101224.47;;;-0.70;72.97
49178;BME280;35016;55.674;37.468;2023-01-24T00:09:42;101213.50;;;-0.67;72.98
49178;BME280;35016;55.674;37.468;2023-01-24T00:12:42;101218.16;;;-0.69;73.06
49178;BME280;35016;55.674;37.468;2023-01-24T00:15:11;101221.66;;;-0.69;73.00
49178;BME280;35016;55.674;37.468;2023-01-24T00:19:09;101211.13;;;-0.70;72.91
49178;BME280;35016;55.674;37.468;2023-01-24T00:21:37;101215.47;;;-0.69;72.87
49178;BME280;35016;55.674;37.468;2023-01-24T00:24:33;101206.50;;;-0.68;72.84
49178;BME280;35016;55.674;37.468;2023-01-24T00:27:36;101209.31;;;-0.70;73.08
49178;BME280;35016;55.674;37.468;2023-01-24T00:30:20;101208.78;;;-0.73;72.84
49178;BME280;35016;55.674;37.468;2023-01-24T00:37:02;101208.09;;;-0.85;72.74
49178;BME280;35016;55.674;37.468;2023-01-24T00:39:31;101205.69;;;-0.88;73.02
49178;BME280;35016;55.674;37.468;2023-01-24T00:42:04;101211.16;;;-0.89;72.88
49178;BME280;35016;55.674;37.468;2023-01-24T00:44:36;101205.16;;;-0.91;72.96
49178;BME280;35016;55.674;37.468;2023-01-24T00:47:08;101206.00;;;-0.91;73.14
49178;BME280;35016;55.674;37.468;2023-01-24T00:50:20;101200.38;;;-0.88;73.21
49178;BME280;35016;55.674;37.468;2023-01-24T01:01:25;101194.91;;;-0.77;72.92
49178;BME280;35016;55.674;37.468;2023-01-24T01:04:13;101194.75;;;-0.75;72.76
49178;BME280;35016;55.674;37.468;2023-01-24T01:11:15;101179.31;;;-0.72;72.90
49178;BME280;35016;55.674;37.468;2023-01-24T01:13:56;101187.31;;;-0.72;72.72
49178;BME280;35016;55.674;37.468;2023-01-24T01:17:29;101187.31;;;-0.72;72.93
49178;BME280;35016;55.674;37.468;2023-01-24T01:21:40;101174.69;;;-0.70;72.79
49178;BME280;35016;55.674;37.468;2023-01-24T01:24:59;101179.19;;;-0.70;73.03
49178;BME280;35016;55.674;37.468;2023-01-24T01:27:27;101172.88;;;-0.69;73.04
49178;BME280;35016;55.674;37.468;2023-01-24T01:29:55;101176.66;;;-0.72;72.80
49178;BME280;35016;55.674;37.468;2023-01-24T01:35:48;101168.81;;;-0.73;73.03
49178;BME280;35016;55.674;37.468;2023-01-24T01:41:41;101160.28;;;-0.77;72.88
49178;BME280;35016;55.674;37.468;2023-01-24T01:44:24;101169.81;;;-0.74;72.98
49178;BME280;35016;55.674;37.468;2023-01-24T01:47:35;101168.66;;;-0.72;72.86
49178;BME280;35016;55.674;37.468;2023-01-24T01:56:57;101164.72;;;-0.68;73.13
49178;BME280;35016;55.674;37.468;2023-01-24T02:02:32;101157.56;;;-0.67;73.15
49178;BME280;35016;55.674;37.468;2023-01-24T02:09:00;101164.72;;;-0.68;73.07
49178;BME280;35016;55.674;37.468;2023-01-24T02:11:30;101175.22;;;-0.66;72.90
49178;BME280;35016;55.674;37.468;2023-01-24T02:14:14;101184.06;;;-0.66;73.09
49178;BME280;35016;55.674;37.468;2023-01-24T02:17:03;101162.59;;;-0.64;72.96
49178;BME280;35016;55.674;37.468;2023-01-24T02:19:40;101172.28;;;-0.63;73.07
49178;BME280;35016;55.674;37.468;2023-01-24T02:22:43;101165.13;;;-0.63;73.12
49178;BME280;35016;55.674;37.468;2023-01-24T02:25:01;101158.81;;;-0.62;73.07
49178;BME280;35016;55.674;37.468;2023-01-24T02:27:34;101163.84;;;-0.58;72.98
49178;BME280;35016;55.674;37.468;2023-01-24T02:30:07;101163.72;;;-0.57;72.96
49178;BME280;35016;55.674;37.468;2023-01-24T02:32:46;101162.75;;;-0.56;73.23
49178;BME280;35016;55.674;37.468;2023-01-24T02:35:27;101164.56;;;-0.56;73.12
49178;BME280;35016;55.674;37.468;2023-01-24T02:40:51;101159.34;;;-0.58;73.20
49178;BME280;35016;55.674;37.468;2023-01-24T02:43:40;101167.09;;;-0.55;72.85
49178;BME280;35016;55.674;37.468;2023-01-24T02:46:16;101152.91;;;-0.55;72.99
49178;BME280;35016;55.674;37.468;2023-01-24T02:48:45;101152.78;;;-0.54;73.03
49178;BME280;35016;55.674;37.468;2023-01-24T02:51:20;101154.31;;;-0.51;73.14
49178;BME280;35016;55.674;37.468;2023-01-24T02:54:08;101156.13;;;-0.52;73.16
49178;BME280;35016;55.674;37.468;2023-01-24T02:56:38;101145.06;;;-0.57;73.07
49178;BME280;35016;55.674;37.468;2023-01-24T02:59:26;101148.69;;;-0.58;72.90
49178;BME280;35016;55.674;37.468;2023-01-24T03:01:56;101146.03;;;-0.58;73.07
49178;BME280;35016;55.674;37.468;2023-01-24T03:04:26;101140.84;;;-0.59;73.23
49178;BME280;35016;55.674;37.468;2023-01-24T03:06:56;101139.88;;;-0.58;73.03
49178;BME280;35016;55.674;37.468;2023-01-24T03:09:32;101132.84;;;-0.59;73.13
49178;BME280;35016;55.674;37.468;2023-01-24T03:13:02;101127.53;;;-0.59;73.11
49178;BME280;35016;55.674;37.468;2023-01-24T03:15:49;101132.16;;;-0.62;73.08
49178;BME280;35016;55.674;37.468;2023-01-24T03:18:35;101128.13;;;-0.66;72.98
49178;BME280;35016;55.674;37.468;2023-01-24T03:21:21;101119.59;;;-0.69;73.22
49178;BME280;35016;55.674;37.468;2023-01-24T03:24:07;101123.38;;;-0.72;72.99
49178;BME280;35016;55.674;37.468;2023-01-24T03:26:59;101114.72;;;-0.74;73.10
49178;BME280;35016;55.674;37.468;2023-01-24T03:29:52;101115.16;;;-0.78;73.23
49178;BME280;35016;55.674;37.468;2023-01-24T03:32:39;101114.47;;;-0.80;73.30
49178;BME280;35016;55.674;37.468;2023-01-24T03:35:24;101117.28;;;-0.82;73.08
49178;BME280;35016;55.674;37.468;2023-01-24T03:37:52;101111.94;;;-0.82;73.13
49178;BME280;35016;55.674;37.468;2023-01-24T03:40:39;101104.09;;;-0.83;73.18
49178;BME280;35016;55.674;37.468;2023-01-24T03:43:08;101103.53;;;-0.87;73.01
49178;BME280;35016;55.674;37.468;2023-01-24T03:45:38;101101.16;;;-0.90;73.14
49178;BME280;35016;55.674;37.468;2023-01-24T03:48:37;101109.16;;;-0.90;73.13
49178;BME280;35016;55.674;37.468;2023-01-24T03:51:08;101104.13;;;-0.93;73.23
49178;BME280;35016;55.674;37.468;2023-01-24T03:53:57;101107.06;;;-0.96;73.33
49178;BME280;35016;55.674;37.468;2023-01-24T03:59:34;101106.53;;;-1.00;73.21
49178;BME280;35016;55.674;37.468;2023-01-24T04:02:02;101104.84;;;-1.01;73.20
49178;BME280;35016;55.674;37.468;2023-01-24T04:04:34;101105.16;;;-1.04;73.23
49178;BME280;35016;55.674;37.468;2023-01-24T04:07:24;101113.28;;;-1.05;73.03
49178;BME280;35016;55.674;37.468;2023-01-24T04:10:00;101111.75;;;-1.08;72.88
49178;BME280;35016;55.674;37.468;2023-01-24T04:13:16;101108.00;;;-1.15;72.99
49178;BME280;35016;55.674;37.468;2023-01-24T04:15:53;101103.22;;;-1.21;72.98
49178;BME280;35016;55.674;37.468;2023-01-24T04:18:45;101106.59;;;-1.29;72.99
49178;BME280;35016;55.674;37.468;2023-01-24T04:21:20;101105.50;;;-1.36;72.95
49178;BME280;35016;55.674;37.468;2023-01-24T04:23:55;101100.63;;;-1.40;72.98
49178;BME280;35016;55.674;37.468;2023-01-24T04:26:41;101094.75;;;-1.44;73.05
49178;BME280;35016;55.674;37.468;2023-01-24T04:29:14;101105.38;;;-1.44;73.01
49178;BME280;35016;55.674;37.468;2023-01-24T04:31:53;101096.56;;;-1.44;72.92
49178;BME280;35016;55.674;37.468;2023-01-24T04:34:52;101097.50;;;-1.45;72.91
49178;BME280;35016;55.674;37.468;2023-01-24T04:37:38;101093.03;;;-1.45;73.03
49178;BME280;35016;55.674;37.468;2023-01-24T04:40:14;101085.06;;;-1.45;73.00
49178;BME280;35016;55.674;37.468;2023-01-24T04:42:56;101093.91;;;-1.44;73.01
49178;BME280;35016;55.674;37.468;2023-01-24T04:45:36;101099.22;;;-1.44;72.71
49178;BME280;35016;55.674;37.468;2023-01-24T04:51:37;101096.28;;;-1.41;73.13
49178;BME280;35016;55.674;37.468;2023-01-24T04:54:15;101095.28;;;-1.40;72.86
49178;BME280;35016;55.674;37.468;2023-01-24T04:56:51;101091.66;;;-1.39;72.94
49178;BME280;35016;55.674;37.468;2023-01-24T04:59:32;101087.16;;;-1.39;73.22
49178;BME280;35016;55.674;37.468;2023-01-24T05:05:49;101084.50;;;-1.48;73.04
49178;BME280;35016;55.674;37.468;2023-01-24T05:08:31;101085.63;;;-1.51;73.06
49178;BME280;35016;55.674;37.468;2023-01-24T05:11:27;101088.44;;;-1.52;73.15
49178;BME280;35016;55.674;37.468;2023-01-24T05:14:18;101078.78;;;-1.53;73.25
49178;BME280;35016;55.674;37.468;2023-01-24T05:16:55;101083.25;;;-1.54;73.02
49178;BME280;35016;55.674;37.468;2023-01-24T05:19:43;101088.72;;;-1.56;73.22
49178;BME280;35016;55.674;37.468;2023-01-24T05:22:15;101084.25;;;-1.55;73.32
49178;BME280;35016;55.674;37.468;2023-01-24T05:24:42;101087.75;;;-1.54;73.25
49178;BME280;35016;55.674;37.468;2023-01-24T05:27:10;101083.25;;;-1.54;73.32
49178;BME280;35016;55.674;37.468;2023-01-24T05:29:47;101073.16;;;-1.50;73.38
49178;BME280;35016;55.674;37.468;2023-01-24T05:32:16;101067.72;;;-1.49;73.46
49178;BME280;35016;55.674;37.468;2023-01-24T05:34:58;101073.72;;;-1.47;73.55
49178;BME280;35016;55.674;37.468;2023-01-24T05:37:38;101077.22;;;-1.46;73.18
49178;BME280;35016;55.674;37.468;2023-01-24T05:40:18;101079.03;;;-1.47;73.17
49178;BME280;35016;55.674;37.468;2023-01-24T05:42:51;101074.56;;;-1.46;73.35
49178;BME280;35016;55.674;37.468;2023-01-24T05:45:20;101070.91;;;-1.45;73.41
49178;BME280;35016;55.674;37.468;2023-01-24T05:47:57;101077.94;;;-1.44;73.24
49178;BME280;35016;55.674;37.468;2023-01-24T05:50:25;101073.47;;;-1.44;73.38
49178;BME280;35016;55.674;37.468;2023-01-24T05:53:11;101070.50;;;-1.41;73.35
49178;BME280;35016;55.674;37.468;2023-01-24T05:56:00;101069.53;;;-1.40;73.43
49178;BME280;35016;55.674;37.468;2023-01-24T05:58:35;101064.50;;;-1.43;73.23
49178;BME280;35016;55.674;37.468;2023-01-24T06:01:13;101061.84;;;-1.43;73.29
49178;BME280;35016;55.674;37.468;2023-01-24T06:03:47;101059.19;;;-1.43;73.47
49178;BME280;35016;55.674;37.468;2023-01-24T06:06:18;101054.84;;;-1.44;73.40
49178;BME280;35016;55.674;37.468;2023-01-24T06:08:53;101059.44;;;-1.46;73.26
49178;BME280;35016;55.674;37.468;2023-01-24T06:11:43;101056.91;;;-1.47;73.44
49178;BME280;35016;55.674;37.468;2023-01-24T06:14:28;101062.25;;;-1.47;73.25
49178;BME280;35016;55.674;37.468;2023-01-24T06:17:19;101055.94;;;-1.46;73.48
49178;BME280;35016;55.674;37.468;2023-01-24T06:20:00;101060.41;;;-1.47;73.30
49178;BME280;35016;55.674;37.468;2023-01-24T06:22:44;101059.72;;;-1.49;73.41
49178;BME280;35016;55.674;37.468;2023-01-24T06:25:54;101061.53;;;-1.49;73.40
49178;BME280;35016;55.674;37.468;2023-01-24T06:29:35;101055.25;;;-1.48;73.31
49178;BME280;35016;55.674;37.468;2023-01-24T06:37:50;101056.78;;;-1.46;73.27
49178;BME280;35016;55.674;37.468;2023-01-24T06:40:28;101049.09;;;-1.49;73.32
49178;BME280;35016;55.674;37.468;2023-01-24T06:46:36;101040.97;;;-1.47;73.50
49178;BME280;35016;55.674;37.468;2023-01-24T06:50:14;101051.06;;;-1.41;73.40
49178;BME280;35016;55.674;37.468;2023-01-24T07:01:00;101044.66;;;-1.11;73.27
49178;BME280;35016;55.674;37.468;2023-01-24T07:04:13;101039.97;;;-1.00;73.29
49178;BME280;35016;55.674;37.468;2023-01-24T07:06:44;101053.25;;;-0.90;73.18
49178;BME280;35016;55.674;37.468;2023-01-24T07:09:22;101056.03;;;-0.82;73.31
49178;BME280;35016;55.674;37.468;2023-01-24T07:12:01;101052.00;;;-0.68;73.35
49178;BME280;35016;55.674;37.468;2023-01-24T07:14:29;101053.94;;;-0.60;73.34
49178;BME280;35016;55.674;37.468;2023-01-24T07:17:08;101051.22;;;-0.51;73.33
49178;BME280;35016;55.674;37.468;2023-01-24T07:20:09;101048.50;;;-0.41;73.35
49178;BME280;35016;55.674;37.468;2023-01-24T07:22:45;101060.69;;;-0.39;73.36
49178;BME280;35016;55.674;37.468;2023-01-24T07:25:29;101062.19;;;-0.36;73.42
49178;BME280;35016;55.674;37.468;2023-01-24T07:27:57;101063.88;;;-0.35;73.10
49178;BME280;35016;55.674;37.468;2023-01-24T07:30:27;101063.03;;;-0.36;73.25
49178;BME280;35016;55.674;37.468;2023-01-24T07:32:59;101069.50;;;-0.38;73.45
49178;BME280;35016;55.674;37.468;2023-01-24T07:35:37;101059.84;;;-0.39;73.38
49178;BME280;35016;55.674;37.468;2023-01-24T07:38:47;101061.28;;;-0.45;73.35
49178;BME280;35016;55.674;37.468;2023-01-24T07:41:26;101062.28;;;-0.46;73.57
49178;BME280;35016;55.674;37.468;2023-01-24T07:44:05;101057.94;;;-0.47;73.35
49178;BME280;35016;55.674;37.468;2023-01-24T07:46:47;101063.25;;;-0.47;73.35
49178;BME280;35016;55.674;37.468;2023-01-24T07:49:17;101057.09;;;-0.47;73.39
49178;BME280;35016;55.674;37.468;2023-01-24T07:51:46;101057.94;;;-0.47;73.42
49178;BME280;35016;55.674;37.468;2023-01-24T07:54:15;101058.47;;;-0.43;73.32
49178;BME280;35016;55.674;37.468;2023-01-24T07:56:48;101057.34;;;-0.41;73.55
49178;BME280;35016;55.674;37.468;2023-01-24T07:59:19;101062.50;;;-0.39;73.58
49178;BME280;35016;55.674;37.468;2023-01-24T08:02:02;101065.72;;;-0.36;73.50
49178;BME280;35016;55.674;37.468;2023-01-24T08:04:33;101071.56;;;-0.32;73.60
49178;BME280;35016;55.674;37.468;2023-01-24T08:07:04;101071.16;;;-0.27;73.26
49178;BME280;35016;55.674;37.468;2023-01-24T08:09:46;101061.03;;;-0.24;73.33
49178;BME280;35016;55.674;37.468;2023-01-24T08:12:18;101066.03;;;-0.21;73.61
49178;BME280;35016;55.674;37.468;2023-01-24T08:14:49;101061.09;;;-0.16;73.51
49178;BME280;35016;55.674;37.468;2023-01-24T08:17:17;101053.47;;;-0.11;73.36
49178;BME280;35016;55.674;37.468;2023-01-24T08:19:46;101058.34;;;-0.06;73.16
49178;BME280;35016;55.674;37.468;2023-01-24T08:22:25;101054.38;;;-0.02;73.20
49178;BME280;35016;55.674;37.468;2023-01-24T08:24:58;101044.28;;;0.02;72.90
49178;BME280;35016;55.674;37.468;2023-01-24T08:27:25;101047.22;;;-0.02;73.04
49178;BME280;35016;55.674;37.468;2023-01-24T08:29:53;101046.38;;;-0.02;73.06
49178;BME280;35016;55.674;37.468;2023-01-24T08:32:20;101051.56;;;-0.01;73.11
49178;BME280;35016;55.674;37.468;2023-01-24T08:34:47;101050.44;;;0.02;73.16
49178;BME280;35016;55.674;37.468;2023-01-24T08:37:15;101044.81;;;0.05;73.13
49178;BME280;35016;55.674;37.468;2023-01-24T08:39:49;101042.44;;;0.02;73.28
49178;BME280;35016;55.674;37.468;2023-01-24T08:42:22;101038.63;;;0.05;73.14
49178;BME280;35016;55.674;37.468;2023-01-24T08:44:52;101034.81;;;0.07;73.28
49178;BME280;35016;55.674;37.468;2023-01-24T08:47:19;101028.34;;;0.10;72.98
49178;BME280;35016;55.674;37.468;2023-01-24T08:49:51;101021.53;;;0.15;73.34
49178;BME280;35016;55.674;37.468;2023-01-24T08:52:21;101013.75;;;0.22;72.96
49178;BME280;35016;55.674;37.468;2023-01-24T08:54:51;101016.63;;;0.28;73.16
49178;BME280;35016;55.674;37.468;2023-01-24T08:57:23;101015.50;;;0.31;73.15
49178;BME280;35016;55.674;37.468;2023-01-24T08:59:50;101014.34;;;0.34;73.02
49178;BME280;35016;55.674;37.468;2023-01-24T09:02:23;101010.84;;;0.33;73.39
49178;BME280;35016;55.674;37.468;2023-01-24T09:04:50;101009.03;;;0.34;73.00
49178;BME280;35016;55.674;37.468;2023-01-24T09:07:30;101002.22;;;0.39;73.29
49178;BME280;35016;55.674;37.468;2023-01-24T09:09:57;100998.41;;;0.42;73.47
49178;BME280;35016;55.674;37.468;2023-01-24T09:12:31;100993.41;;;0.47;73.38
49178;BME280;35016;55.674;37.468;2023-01-24T09:14:59;101001.09;;;0.50;73.11
49178;BME280;35016;55.674;37.468;2023-01-24T09:17:26;100993.78;;;0.52;73.33
49178;BME280;35016;55.674;37.468;2023-01-24T09:19:59;100988.97;;;0.55;73.36
49178;BME280;35016;55.674;37.468;2023-01-24T09:22:26;100991.47;;;0.57;73.24
49178;BME280;35016;55.674;37.468;2023-01-24T09:25:20;100988.81;;;0.57;73.14
49178;BME280;35016;55.674;37.468;2023-01-24T09:27:52;100981.78;;;0.56;73.24
49178;BME280;35016;55.674;37.468;2023-01-24T09:30:29;100984.19;;;0.59;73.33
49178;BME280;35016;55.674;37.468;2023-01-24T09:33:10;100982.19;;;0.61;73.41
49178;BME280;35016;55.674;37.468;2023-01-24T09:35:37;100982.84;;;0.63;73.51
49178;BME280;35016;55.674;37.468;2023-01-24T09:38:08;100984.22;;;0.67;73.12
49178;BME280;35016;55.674;37.468;2023-01-24T09:40:43;100985.72;;;0.70;72.93
49178;BME280;35016;55.674;37.468;2023-01-24T09:46:14;100985.88;;;0.68;73.32
49178;BME280;35016;55.674;37.468;2023-01-24T09:48:42;100991.22;;;0.68;73.33
49178;BME280;35016;55.674;37.468;2023-01-24T09:51:43;100997.41;;;0.69;73.04
49178;BME280;35016;55.674;37.468;2023-01-24T09:54:58;100989.22;;;0.70;73.33
49178;BME280;35016;55.674;37.468;2023-01-24T09:58:02;100996.41;;;0.70;72.90
49178;BME280;35016;55.674;37.468;2023-01-24T10:00:26;100982.03;;;0.63;72.84
49178;BME280;35016;55.674;37.468;2023-01-24T10:03:19;100979.97;;;0.56;72.90
49178;BME280;35016;55.674;37.468;2023-01-24T10:11:48;100965.94;;;0.54;73.21
49178;BME280;35016;55.674;37.468;2023-01-24T10:14:30;100958.59;;;0.56;73.13
49178;BME280;35016;55.674;37.468;2023-01-24T10:23:31;100956.06;;;0.81;73.26
49178;BME280;35016;55.674;37.468;2023-01-24T10:26:19;100944.78;;;0.87;72.88
49178;BME280;35016;55.674;37.468;2023-01-24T10:28:49;100944.28;;;0.91;72.52
49178;BME280;35016;55.674;37.468;2023-01-24T10:34:10;100941.09;;;0.88;72.59
49178;BME280;35016;55.674;37.468;2023-01-24T10:37:05;100930.41;;;0.88;72.58
49178;BME280;35016;55.674;37.468;2023-01-24T10:39:41;100934.09;;;0.87;72.71
49178;BME280;35016;55.674;37.468;2023-01-24T10:42:18;100921.41;;;0.89;72.92
49178;BME280;35016;55.674;37.468;2023-01-24T10:44:51;100919.25;;;0.92;72.65
49178;BME280;35016;55.674;37.468;2023-01-24T10:50:21;100905.41;;;0.97;72.41
49178;BME280;35016;55.674;37.468;2023-01-24T10:53:06;100908.59;;;1.01;72.82
49178;BME280;35016;55.674;37.468;2023-01-24T10:55:57;100912.94;;;1.02;72.42
49178;BME280;35016;55.674;37.468;2023-01-24T10:58:27;100904.06;;;1.01;72.54
49178;BME280;35016;55.674;37.468;2023-01-24T11:01:06;100898.72;;;1.01;72.87
49178;BME280;35016;55.674;37.468;2023-01-24T11:03:38;100896.41;;;0.98;72.65
49178;BME280;35016;55.674;37.468;2023-01-24T11:06:20;100904.56;;;0.97;72.62
49178;BME280;35016;55.674;37.468;2023-01-24T11:08:52;100898.22;;;0.98;72.70
49178;BME280;35016;55.674;37.468;2023-01-24T11:11:27;100890.72;;;1.01;72.96
49178;BME280;35016;55.674;37.468;2023-01-24T11:14:01;100878.72;;;1.05;72.88
49178;BME280;35016;55.674;37.468;2023-01-24T11:16:47;100873.88;;;1.09;72.89
49178;BME280;35016;55.674;37.468;2023-01-24T11:19:45;100863.19;;;1.09;72.74
49178;BME280;35016;55.674;37.468;2023-01-24T11:22:24;100869.38;;;1.09;72.66
49178;BME280;35016;55.674;37.468;2023-01-24T11:24:58;100868.03;;;1.13;73.12
49178;BME280;35016;55.674;37.468;2023-01-24T11:27:36;100868.22;;;1.20;72.58
49178;BME280;35016;55.674;37.468;2023-01-24T11:33:37;100861.88;;;1.29;72.48
49178;BME280;35016;55.674;37.468;2023-01-24T11:36:45;100852.72;;;1.32;72.48
49178;BME280;35016;55.674;37.468;2023-01-24T11:42:09;100848.38;;;1.31;72.46
49178;BME280;35016;55.674;37.468;2023-01-24T11:58:42;100842.19;;;1.22;72.57
49178;BME280;35016;55.674;37.468;2023-01-24T12:01:41;100844.03;;;1.21;72.61
49178;BME280;35016;55.674;37.468;2023-01-24T12:12:41;100820.31;;;1.27;72.58
49178;BME280;35016;55.674;37.468;2023-01-24T12:20:57;100823.47;;;1.30;71.88
49178;BME280;35016;55.674;37.468;2023-01-24T12:26:16;100824.31;;;1.31;72.40
49178;BME280;35016;55.674;37.468;2023-01-24T12:39:18;100807.94;;;1.09;72.47
49178;BME280;35016;55.674;37.468;2023-01-24T12:42:05;100806.44;;;1.07;72.33
49178;BME280;35016;55.674;37.468;2023-01-24T12:45:04;100798.59;;;1.05;72.32
49178;BME280;35016;55.674;37.468;2023-01-24T12:48:15;100790.91;;;1.02;72.43
49178;BME280;35016;55.674;37.468;2023-01-24T13:07:03;100784.34;;;0.80;72.12
49178;BME280;35016;55.674;37.468;2023-01-24T13:10:17;100789.88;;;0.79;72.03
49178;BME280;35016;55.674;37.468;2023-01-24T13:13:40;100784.84;;;0.76;71.95
49178;BME280;35016;55.674;37.468;2023-01-24T13:22:04;100789.53;;;0.66;72.42
49178;BME280;35016;55.674;37.468;2023-01-24T13:27:31;100777.84;;;0.58;72.50
49178;BME280;35016;55.674;37.468;2023-01-24T13:32:53;100777.00;;;0.58;72.11
49178;BME280;35016;55.674;37.468;2023-01-24T13:35:34;100784.31;;;0.56;72.00
49178;BME280;35016;55.674;37.468;2023-01-24T13:38:21;100776.78;;;0.51;71.90
49178;BME280;35016;55.674;37.468;2023-01-24T13:41:04;100780.63;;;0.49;72.46
49178;BME280;35016;55.674;37.468;2023-01-24T13:49:16;100764.44;;;0.42;72.17
49178;BME280;35016;55.674;37.468;2023-01-24T13:54:53;100760.09;;;0.41;72.13
49178;BME280;35016;55.674;37.468;2023-01-24T14:01:24;100764.59;;;0.33;72.29
49178;BME280;35016;55.674;37.468;2023-01-24T14:11:19;100755.19;;;0.28;72.09
49178;BME280;35016;55.674;37.468;2023-01-24T14:13:57;100742.56;;;0.30;72.02
49178;BME280;35016;55.674;37.468;2023-01-24T14:22:14;100746.53;;;0.26;72.29
49178;BME280;35016;55.674;37.468;2023-01-24T14:24:52;100750.72;;;0.29;72.07
49178;BME280;35016;55.674;37.468;2023-01-24T14:27:26;100738.22;;;0.29;71.84
49178;BME280;35016;55.674;37.468;2023-01-24T14:39:48;100737.50;;;0.19;72.34
49178;BME280;35016;55.674;37.468;2023-01-24T14:49:12;100716.19;;;0.19;72.30
49178;BME280;35016;55.674;37.468;2023-01-24T14:58:13;100715.66;;;0.16;72.39
49178;BME280;35016;55.674;37.468;2023-01-24T15:00:41;100719.66;;;0.12;72.21
49178;BME280;35016;55.674;37.468;2023-01-24T15:03:13;100718.16;;;0.09;72.33
49178;BME280;35016;55.674;37.468;2023-01-24T15:05:49;100717.31;;;0.09;72.04
49178;BME280;35016;55.674;37.468;2023-01-24T15:08:17;100716.47;;;0.08;71.90
49178;BME280;35016;55.674;37.468;2023-01-24T15:10:44;100705.81;;;0.08;72.37
49178;BME280;35016;55.674;37.468;2023-01-24T15:13:19;100702.16;;;0.09;72.46
49178;BME280;35016;55.674;37.468;2023-01-24T15:15:47;100707.50;;;0.09;72.34
49178;BME280;35016;55.674;37.468;2023-01-24T15:21:02;100706.81;;;0.07;71.99
49178;BME280;35016;55.674;37.468;2023-01-24T15:23:30;100713.16;;;0.06;72.32
49178;BME280;35016;55.674;37.468;2023-01-24T15:28:58;100709.13;;;0.02;72.18
49178;BME280;35016;55.674;37.468;2023-01-24T15:31:32;100706.63;;;0.01;72.38
49178;BME280;35016;55.674;37.468;2023-01-24T15:34:01;100707.47;;;0.01;72.17
49178;BME280;35016;55.674;37.468;2023-01-24T15:36:29;100709.97;;;0.03;72.25
49178;BME280;35016;55.674;37.468;2023-01-24T15:39:01;100690.47;;;0.02;71.82
49178;BME280;35016;55.674;37.468;2023-01-24T15:41:30;100699.59;;;-0.01;72.24
49178;BME280;35016;55.674;37.468;2023-01-24T15:44:23;100710.13;;;0.01;71.98
49178;BME280;35016;55.674;37.468;2023-01-24T15:46:55;100693.66;;;0.06;72.44
49178;BME280;35016;55.674;37.468;2023-01-24T15:50:01;100691.81;;;0.06;71.93
49178;BME280;35016;55.674;37.468;2023-01-24T15:53:26;100689.81;;;0.08;72.21
49178;BME280;35016;55.674;37.468;2023-01-24T15:55:50;100695.97;;;0.09;72.33
49178;BME280;35016;55.674;37.468;2023-01-24T15:58:18;100688.31;;;0.06;71.90
49178;BME280;35016;55.674;37.468;2023-01-24T16:01:19;100679.63;;;0.04;71.97
49178;BME280;35016;55.674;37.468;2023-01-24T16:03:42;100689.47;;;0.03;71.99
49178;BME280;35016;55.674;37.468;2023-01-24T16:06:10;100685.13;;;0.02;72.33
49178;BME280;35016;55.674;37.468;2023-01-24T16:08:38;100680.81;;;0.01;72.08
49178;BME280;35016;55.674;37.468;2023-01-24T16:11:05;100689.63;;;0.02;71.91
49178;BME280;35016;55.674;37.468;2023-01-24T16:16:06;100681.97;;;0.07;72.06
49178;BME280;35016;55.674;37.468;2023-01-24T16:23:26;100698.09;;;-0.03;71.80
49178;BME280;35016;55.674;37.468;2023-01-24T16:25:55;100681.25;;;-0.04;71.91
49178;BME280;35016;55.674;37.468;2023-01-24T16:28:25;100679.59;;;-0.05;71.87
49178;BME280;35016;55.674;37.468;2023-01-24T16:31:11;100682.41;;;-0.06;72.10
49178;BME280;35016;55.674;37.468;2023-01-24T16:33:46;100674.59;;;-0.08;72.34
49178;BME280;35016;55.674;37.468;2023-01-24T16:36:19;100674.59;;;-0.08;72.24
49178;BME280;35016;55.674;37.468;2023-01-24T16:39:05;100690.41;;;-0.06;72.18
49178;BME280;35016;55.674;37.468;2023-01-24T16:41:45;100681.25;;;-0.04;72.34
49178;BME280;35016;55.674;37.468;2023-01-24T16:44:13;100681.94;;;-0.02;71.94
49178;BME280;35016;55.674;37.468;2023-01-24T16:46:48;100681.81;;;0.00;72.11
49178;BME280;35016;55.674;37.468;2023-01-24T16:49:16;100673.81;;;0.00;72.23
49178;BME280;35016;55.674;37.468;2023-01-24T16:51:44;100674.78;;;-0.01;72.23
49178;BME280;35016;55.674;37.468;2023-01-24T16:54:13;100676.31;;;0.02;71.89
49178;BME280;35016;55.674;37.468;2023-01-24T16:56:41;100677.97;;;0.03;72.01
49178;BME280;35016;55.674;37.468;2023-01-24T16:59:09;100666.97;;;0.06;71.75
49178;BME280;35016;55.674;37.468;2023-01-24T17:01:37;100672.16;;;0.07;71.94
49178;BME280;35016;55.674;37.468;2023-01-24T17:04:05;100671.16;;;0.08;71.88
49178;BME280;35016;55.674;37.468;2023-01-24T17:06:35;100674.97;;;0.06;72.03
49178;BME280;35016;55.674;37.468;2023-01-24T17:09:03;100673.16;;;0.06;71.83
49178;BME280;35016;55.674;37.468;2023-01-24T17:11:32;100668.97;;;0.04;72.00
49178;BME280;35016;55.674;37.468;2023-01-24T17:14:04;100663.97;;;0.01;72.06
49178;BME280;35016;55.674;37.468;2023-01-24T17:16:31;100664.28;;;-0.03;72.23
49178;BME280;35016;55.674;37.468;2023-01-24T17:19:04;100663.44;;;-0.03;71.92
49178;BME280;35016;55.674;37.468;2023-01-24T17:21:34;100668.94;;;-0.05;72.30
49178;BME280;35016;55.674;37.468;2023-01-24T17:24:04;100677.09;;;-0.06;71.93
49178;BME280;35016;55.674;37.468;2023-01-24T17:26:32;100669.25;;;-0.08;72.42
49178;BME280;35016;55.674;37.468;2023-01-24T17:28:59;100672.59;;;-0.06;71.77
49178;BME280;35016;55.674;37.468;2023-01-24T17:31:27;100656.75;;;-0.07;71.97
49178;BME280;35016;55.674;37.468;2023-01-24T17:33:54;100661.25;;;-0.08;72.37
49178;BME280;35016;55.674;37.468;2023-01-24T17:36:22;100660.59;;;-0.10;72.00